This is the latest recevied weather packets stored in our database for station/object WC4PEM. If no packets are shown the sender has not sent any weather packets the latest 1 day(s).
| Time | Temp. | Humidity | Pressure | Rain* | Wind** | Luminosity | Snow |
|---|---|---|---|---|---|---|---|
| 1778035466 | 23.33° C | 71% | 1015.9 hPa | 0 mm | 1.79 m/s, 106° | - | - |
| 1778035373 | 23.33° C | 71% | 1015.9 hPa | 0 mm | 1.79 m/s, 111° | - | - |
| 1778035166 | 23.33° C | 71% | 1015.9 hPa | 0 mm | 1.79 m/s, 111° | - | - |
| 1778034866 | 23.33° C | 71% | 1015.9 hPa | 0 mm | 1.79 m/s, 101° | - | - |
| 1778034566 | 23.33° C | 70% | 1015.9 hPa | 0 mm | 1.79 m/s, 102° | - | - |
| 1778034266 | 23.33° C | 70% | 1015.8 hPa | 0 mm | 1.79 m/s, 93° | - | - |
| 1778033966 | 23.33° C | 70% | 1015.6 hPa | 0 mm | 2.24 m/s, 93° | - | - |
| 1778033746 | 23.89° C | 69% | 1015.6 hPa | 0 mm | 2.24 m/s, 93° | - | - |
| 1778033666 | 23.89° C | 69% | 1015.6 hPa | 0 mm | 2.24 m/s, 103° | - | - |
| 1778033366 | 23.89° C | 69% | 1015.6 hPa | 0 mm | 1.79 m/s, 100° | - | - |
| 1778033102 | 23.89° C | 68% | 1015.4 hPa | 0 mm | 2.24 m/s, 90° | - | - |
| 1778033066 | 23.89° C | 69% | 1015.6 hPa | 0 mm | 2.24 m/s, 93° | - | - |
| 1778032766 | 23.89° C | 68% | 1015.4 hPa | 0 mm | 2.24 m/s, 90° | - | - |
| 1778032682 | 23.89° C | 68% | 1015.4 hPa | 0 mm | 2.68 m/s, 90° | - | - |
| 1778032466 | 23.89° C | 68% | 1015.4 hPa | 0 mm | 2.68 m/s, 90° | - | - |
| 1778032166 | 23.89° C | 67% | 1015.2 hPa | 0 mm | 2.68 m/s, 93° | - | - |
| 1778031895 | 23.89° C | 67% | 1015.1 hPa | 0 mm | 3.58 m/s, 90° | - | - |
| 1778031866 | 23.89° C | 67% | 1015.2 hPa | 0 mm | 3.13 m/s, 110° | - | - |
| 1778031566 | 23.89° C | 67% | 1015.1 hPa | 0 mm | 3.58 m/s, 90° | - | - |
| 1778031304 | 24.44° C | 66% | 1014.8 hPa | 0 mm | 4.02 m/s, 105° | - | - |
| 1778031304 | 24.44° C | 65% | 1014.8 hPa | 0 mm | 4.02 m/s, 100° | - | - |
| 1778031266 | 24.44° C | 67% | 1015 hPa | 0 mm | 3.58 m/s, 88° | - | - |
| 1778031178 | 24.44° C | 66% | 1014.8 hPa | 0 mm | 4.02 m/s, 105° | - | - |
| 1778030966 | 24.44° C | 66% | 1014.8 hPa | 0 mm | 4.02 m/s, 105° | - | - |
| 1778030666 | 24.44° C | 65% | 1014.8 hPa | 0 mm | 4.02 m/s, 100° | - | - |
* Rain latest hour (hover to see other rain measurements)
** Current wind speed in m/s (hover to see current wind gust speed)